Terminal Aerodrome Forecast
Issued by NWS

Home | Current Version | Previous Version | Graphics & Text | Print | Product List | Glossary On
Versions: 1 2 3 4 5 6 7 8 9 10 11 12 13 14 15 16
000
FTUS43 KICT 221720
TAFRSL
TAF
KRSL 221720Z 2218/2318 30011KT P6SM FEW250
     FM222300 01008KT P6SM FEW250
     FM230500 06011KT P6SM BKN200
     FM231600 11013KT P6SM BKN150=

USA.gov is the U.S. government's official web portal to all federal, state and local government web resources and services.